sensor_id;sensor_type;location;lat;lon;timestamp;P1;durP1;ratioP1;P2;durP2;ratioP2
78728;SDS011;68252;44.944;20.218;2024-02-15T00:01:03;51.20;;;20.98;;
78728;SDS011;68252;44.944;20.218;2024-02-15T00:03:29;53.08;;;21.77;;
78728;SDS011;68252;44.944;20.218;2024-02-15T00:05:56;67.38;;;26.67;;
78728;SDS011;68252;44.944;20.218;2024-02-15T00:08:22;74.55;;;28.95;;
78728;SDS011;68252;44.944;20.218;2024-02-15T00:10:49;79.28;;;30.45;;
78728;SDS011;68252;44.944;20.218;2024-02-15T00:13:15;81.05;;;33.53;;
78728;SDS011;68252;44.944;20.218;2024-02-15T00:15:42;85.43;;;34.45;;
78728;SDS011;68252;44.944;20.218;2024-02-15T00:18:08;80.35;;;32.55;;
78728;SDS011;68252;44.944;20.218;2024-02-15T00:20:34;85.78;;;33.05;;
78728;SDS011;68252;44.944;20.218;2024-02-15T00:23:00;80.95;;;31.15;;
78728;SDS011;68252;44.944;20.218;2024-02-15T00:25:26;80.25;;;31.63;;
78728;SDS011;68252;44.944;20.218;2024-02-15T00:27:52;79.07;;;30.95;;
78728;SDS011;68252;44.944;20.218;2024-02-15T00:30:18;71.68;;;31.98;;
78728;SDS011;68252;44.944;20.218;2024-02-15T00:32:44;73.45;;;31.50;;
78728;SDS011;68252;44.944;20.218;2024-02-15T00:35:11;75.00;;;31.13;;
78728;SDS011;68252;44.944;20.218;2024-02-15T00:37:38;72.07;;;31.48;;
78728;SDS011;68252;44.944;20.218;2024-02-15T00:40:06;76.47;;;31.88;;
78728;SDS011;68252;44.944;20.218;2024-02-15T00:42:32;77.78;;;30.65;;
78728;SDS011;68252;44.944;20.218;2024-02-15T00:44:59;72.80;;;31.27;;
78728;SDS011;68252;44.944;20.218;2024-02-15T00:47:25;77.03;;;32.38;;
78728;SDS011;68252;44.944;20.218;2024-02-15T00:49:51;72.88;;;30.77;;
78728;SDS011;68252;44.944;20.218;2024-02-15T00:52:17;73.22;;;32.45;;
78728;SDS011;68252;44.944;20.218;2024-02-15T00:54:44;68.20;;;30.50;;
78728;SDS011;68252;44.944;20.218;2024-02-15T00:57:10;67.57;;;30.13;;
78728;SDS011;68252;44.944;20.218;2024-02-15T00:59:36;70.82;;;28.80;;
78728;SDS011;68252;44.944;20.218;2024-02-15T01:02:02;70.75;;;30.77;;
78728;SDS011;68252;44.944;20.218;2024-02-15T01:04:29;77.90;;;31.63;;
78728;SDS011;68252;44.944;20.218;2024-02-15T01:06:55;74.35;;;31.77;;
78728;SDS011;68252;44.944;20.218;2024-02-15T01:09:21;75.32;;;31.42;;
78728;SDS011;68252;44.944;20.218;2024-02-15T01:11:48;74.68;;;32.80;;
78728;SDS011;68252;44.944;20.218;2024-02-15T01:14:14;75.15;;;31.40;;
78728;SDS011;68252;44.944;20.218;2024-02-15T01:16:41;74.05;;;32.42;;
78728;SDS011;68252;44.944;20.218;2024-02-15T01:19:08;72.35;;;31.25;;
78728;SDS011;68252;44.944;20.218;2024-02-15T01:21:34;75.60;;;31.83;;
78728;SDS011;68252;44.944;20.218;2024-02-15T01:24:01;77.22;;;32.28;;
78728;SDS011;68252;44.944;20.218;2024-02-15T01:26:28;79.75;;;33.35;;
78728;SDS011;68252;44.944;20.218;2024-02-15T01:28:54;77.63;;;33.90;;
78728;SDS011;68252;44.944;20.218;2024-02-15T01:31:21;77.05;;;31.63;;
78728;SDS011;68252;44.944;20.218;2024-02-15T01:33:48;78.80;;;32.45;;
78728;SDS011;68252;44.944;20.218;2024-02-15T01:36:14;75.78;;;32.00;;
78728;SDS011;68252;44.944;20.218;2024-02-15T01:38:41;70.25;;;30.27;;
78728;SDS011;68252;44.944;20.218;2024-02-15T01:41:07;76.35;;;33.38;;
78728;SDS011;68252;44.944;20.218;2024-02-15T01:43:33;84.53;;;36.25;;
78728;SDS011;68252;44.944;20.218;2024-02-15T01:45:59;77.85;;;33.92;;
78728;SDS011;68252;44.944;20.218;2024-02-15T01:48:31;71.03;;;32.28;;
78728;SDS011;68252;44.944;20.218;2024-02-15T01:50:57;73.78;;;33.45;;
78728;SDS011;68252;44.944;20.218;2024-02-15T01:53:24;77.15;;;34.55;;
78728;SDS011;68252;44.944;20.218;2024-02-15T01:55:52;83.97;;;33.72;;
78728;SDS011;68252;44.944;20.218;2024-02-15T01:58:20;70.70;;;34.13;;
78728;SDS011;68252;44.944;20.218;2024-02-15T02:00:47;75.40;;;34.63;;
78728;SDS011;68252;44.944;20.218;2024-02-15T02:03:14;72.00;;;33.17;;
78728;SDS011;68252;44.944;20.218;2024-02-15T02:05:41;79.22;;;32.65;;
78728;SDS011;68252;44.944;20.218;2024-02-15T02:08:07;77.60;;;34.15;;
78728;SDS011;68252;44.944;20.218;2024-02-15T02:10:37;77.47;;;34.22;;
78728;SDS011;68252;44.944;20.218;2024-02-15T02:13:03;74.75;;;34.05;;
78728;SDS011;68252;44.944;20.218;2024-02-15T02:15:33;79.72;;;35.45;;
78728;SDS011;68252;44.944;20.218;2024-02-15T02:18:03;80.40;;;35.78;;
78728;SDS011;68252;44.944;20.218;2024-02-15T02:20:34;93.25;;;36.53;;
78728;SDS011;68252;44.944;20.218;2024-02-15T02:23:07;84.00;;;35.85;;
78728;SDS011;68252;44.944;20.218;2024-02-15T02:25:33;89.95;;;37.58;;
78728;SDS011;68252;44.944;20.218;2024-02-15T02:27:59;93.13;;;38.85;;
78728;SDS011;68252;44.944;20.218;2024-02-15T02:30:25;109.63;;;40.30;;
78728;SDS011;68252;44.944;20.218;2024-02-15T02:32:55;92.13;;;36.60;;
78728;SDS011;68252;44.944;20.218;2024-02-15T02:35:22;93.85;;;37.67;;
78728;SDS011;68252;44.944;20.218;2024-02-15T02:37:48;87.03;;;37.22;;
78728;SDS011;68252;44.944;20.218;2024-02-15T02:40:14;88.55;;;37.53;;
78728;SDS011;68252;44.944;20.218;2024-02-15T02:42:51;90.80;;;39.13;;
78728;SDS011;68252;44.944;20.218;2024-02-15T02:45:17;88.35;;;39.20;;
78728;SDS011;68252;44.944;20.218;2024-02-15T02:47:48;85.88;;;39.08;;
78728;SDS011;68252;44.944;20.218;2024-02-15T02:50:14;87.40;;;40.08;;
78728;SDS011;68252;44.944;20.218;2024-02-15T02:52:40;93.47;;;39.25;;
78728;SDS011;68252;44.944;20.218;2024-02-15T02:55:06;88.13;;;39.50;;
78728;SDS011;68252;44.944;20.218;2024-02-15T02:57:36;97.30;;;41.03;;
78728;SDS011;68252;44.944;20.218;2024-02-15T03:00:06;91.18;;;39.35;;
78728;SDS011;68252;44.944;20.218;2024-02-15T03:02:40;94.25;;;40.58;;
78728;SDS011;68252;44.944;20.218;2024-02-15T03:05:06;91.20;;;37.78;;
78728;SDS011;68252;44.944;20.218;2024-02-15T03:07:33;100.40;;;39.80;;
78728;SDS011;68252;44.944;20.218;2024-02-15T03:10:00;91.93;;;38.58;;
78728;SDS011;68252;44.944;20.218;2024-02-15T03:12:26;100.47;;;40.28;;
78728;SDS011;68252;44.944;20.218;2024-02-15T03:14:54;102.35;;;42.53;;
78728;SDS011;68252;44.944;20.218;2024-02-15T03:17:21;92.70;;;39.25;;
78728;SDS011;68252;44.944;20.218;2024-02-15T03:19:47;106.35;;;39.33;;
78728;SDS011;68252;44.944;20.218;2024-02-15T03:22:13;101.38;;;40.60;;
78728;SDS011;68252;44.944;20.218;2024-02-15T03:24:40;95.68;;;41.05;;
78728;SDS011;68252;44.944;20.218;2024-02-15T03:27:06;104.05;;;41.13;;
78728;SDS011;68252;44.944;20.218;2024-02-15T03:29:34;92.95;;;40.13;;
78728;SDS011;68252;44.944;20.218;2024-02-15T03:32:01;102.93;;;41.15;;
78728;SDS011;68252;44.944;20.218;2024-02-15T03:34:29;73.00;;;32.87;;
78728;SDS011;68252;44.944;20.218;2024-02-15T03:36:56;95.00;;;38.90;;
78728;SDS011;68252;44.944;20.218;2024-02-15T03:39:22;93.50;;;40.42;;
78728;SDS011;68252;44.944;20.218;2024-02-15T03:41:49;90.05;;;38.50;;
78728;SDS011;68252;44.944;20.218;2024-02-15T03:44:15;90.82;;;39.20;;
78728;SDS011;68252;44.944;20.218;2024-02-15T03:46:43;105.72;;;40.72;;
78728;SDS011;68252;44.944;20.218;2024-02-15T03:49:16;94.38;;;39.03;;
78728;SDS011;68252;44.944;20.218;2024-02-15T03:51:42;96.55;;;38.97;;
78728;SDS011;68252;44.944;20.218;2024-02-15T03:54:10;98.90;;;41.35;;
78728;SDS011;68252;44.944;20.218;2024-02-15T03:56:36;90.72;;;39.10;;
78728;SDS011;68252;44.944;20.218;2024-02-15T03:59:02;101.65;;;39.95;;
78728;SDS011;68252;44.944;20.218;2024-02-15T04:01:30;97.35;;;39.63;;
78728;SDS011;68252;44.944;20.218;2024-02-15T04:03:59;98.78;;;41.22;;
78728;SDS011;68252;44.944;20.218;2024-02-15T04:06:27;99.65;;;39.80;;
78728;SDS011;68252;44.944;20.218;2024-02-15T04:08:56;130.40;;;41.40;;
78728;SDS011;68252;44.944;20.218;2024-02-15T04:11:22;115.50;;;42.20;;
78728;SDS011;68252;44.944;20.218;2024-02-15T04:13:48;134.52;;;45.38;;
78728;SDS011;68252;44.944;20.218;2024-02-15T04:16:14;124.72;;;46.95;;
78728;SDS011;68252;44.944;20.218;2024-02-15T04:18:41;101.35;;;41.63;;
78728;SDS011;68252;44.944;20.218;2024-02-15T04:21:10;98.23;;;43.27;;
78728;SDS011;68252;44.944;20.218;2024-02-15T04:23:36;102.72;;;40.72;;
78728;SDS011;68252;44.944;20.218;2024-02-15T04:26:02;93.75;;;39.25;;
78728;SDS011;68252;44.944;20.218;2024-02-15T04:28:28;91.22;;;39.72;;
78728;SDS011;68252;44.944;20.218;2024-02-15T04:30:55;206.63;;;73.03;;
78728;SDS011;68252;44.944;20.218;2024-02-15T04:33:21;103.32;;;39.70;;
78728;SDS011;68252;44.944;20.218;2024-02-15T04:35:47;94.70;;;39.63;;
78728;SDS011;68252;44.944;20.218;2024-02-15T04:38:15;101.88;;;45.35;;
78728;SDS011;68252;44.944;20.218;2024-02-15T04:40:41;104.75;;;41.25;;
78728;SDS011;68252;44.944;20.218;2024-02-15T04:43:07;112.13;;;42.53;;
78728;SDS011;68252;44.944;20.218;2024-02-15T04:45:34;99.95;;;40.65;;
78728;SDS011;68252;44.944;20.218;2024-02-15T04:48:00;104.80;;;42.72;;
78728;SDS011;68252;44.944;20.218;2024-02-15T04:50:28;104.85;;;41.20;;
78728;SDS011;68252;44.944;20.218;2024-02-15T04:52:54;92.93;;;40.38;;
78728;SDS011;68252;44.944;20.218;2024-02-15T04:55:20;101.85;;;40.47;;
78728;SDS011;68252;44.944;20.218;2024-02-15T04:57:47;101.07;;;40.78;;
78728;SDS011;68252;44.944;20.218;2024-02-15T05:00:14;91.95;;;39.67;;
78728;SDS011;68252;44.944;20.218;2024-02-15T05:02:40;96.07;;;37.92;;
78728;SDS011;68252;44.944;20.218;2024-02-15T05:05:08;121.82;;;47.38;;
78728;SDS011;68252;44.944;20.218;2024-02-15T05:07:35;127.40;;;44.30;;
78728;SDS011;68252;44.944;20.218;2024-02-15T05:10:05;119.97;;;45.97;;
78728;SDS011;68252;44.944;20.218;2024-02-15T05:12:32;102.75;;;41.08;;
78728;SDS011;68252;44.944;20.218;2024-02-15T05:14:59;96.85;;;38.55;;
78728;SDS011;68252;44.944;20.218;2024-02-15T05:17:25;97.32;;;39.83;;
78728;SDS011;68252;44.944;20.218;2024-02-15T05:19:53;96.40;;;40.00;;
78728;SDS011;68252;44.944;20.218;2024-02-15T05:22:24;107.82;;;42.15;;
78728;SDS011;68252;44.944;20.218;2024-02-15T05:24:53;122.65;;;44.55;;
78728;SDS011;68252;44.944;20.218;2024-02-15T05:27:19;135.55;;;47.10;;
78728;SDS011;68252;44.944;20.218;2024-02-15T05:29:45;121.50;;;46.90;;
78728;SDS011;68252;44.944;20.218;2024-02-15T05:32:11;107.57;;;42.95;;
78728;SDS011;68252;44.944;20.218;2024-02-15T05:34:39;104.03;;;43.80;;
78728;SDS011;68252;44.944;20.218;2024-02-15T05:37:06;112.50;;;43.92;;
78728;SDS011;68252;44.944;20.218;2024-02-15T05:39:32;115.03;;;43.42;;
78728;SDS011;68252;44.944;20.218;2024-02-15T05:41:59;99.18;;;43.03;;
78728;SDS011;68252;44.944;20.218;2024-02-15T05:44:26;102.63;;;42.30;;
78728;SDS011;68252;44.944;20.218;2024-02-15T05:46:53;110.95;;;42.65;;
78728;SDS011;68252;44.944;20.218;2024-02-15T05:49:19;98.35;;;39.90;;
78728;SDS011;68252;44.944;20.218;2024-02-15T05:51:46;110.88;;;42.35;;
78728;SDS011;68252;44.944;20.218;2024-02-15T05:54:13;96.70;;;41.75;;
78728;SDS011;68252;44.944;20.218;2024-02-15T05:56:39;97.95;;;43.83;;
78728;SDS011;68252;44.944;20.218;2024-02-15T05:59:06;112.65;;;43.97;;
78728;SDS011;68252;44.944;20.218;2024-02-15T06:01:36;106.55;;;42.20;;
78728;SDS011;68252;44.944;20.218;2024-02-15T06:04:03;101.55;;;42.00;;
78728;SDS011;68252;44.944;20.218;2024-02-15T06:08:59;92.22;;;40.88;;
78728;SDS011;68252;44.944;20.218;2024-02-15T06:11:26;102.03;;;42.17;;
78728;SDS011;68252;44.944;20.218;2024-02-15T06:13:52;93.15;;;39.08;;
78728;SDS011;68252;44.944;20.218;2024-02-15T06:16:18;106.57;;;43.08;;
78728;SDS011;68252;44.944;20.218;2024-02-15T06:18:44;108.20;;;43.70;;
78728;SDS011;68252;44.944;20.218;2024-02-15T06:21:13;118.18;;;43.10;;
78728;SDS011;68252;44.944;20.218;2024-02-15T06:23:39;109.60;;;44.67;;
78728;SDS011;68252;44.944;20.218;2024-02-15T06:26:05;211.20;;;65.88;;
78728;SDS011;68252;44.944;20.218;2024-02-15T06:28:31;222.55;;;68.70;;
78728;SDS011;68252;44.944;20.218;2024-02-15T06:31:16;115.85;;;46.17;;
78728;SDS011;68252;44.944;20.218;2024-02-15T06:34:01;113.93;;;46.20;;
78728;SDS011;68252;44.944;20.218;2024-02-15T06:39:30;96.80;;;41.70;;
78728;SDS011;68252;44.944;20.218;2024-02-15T06:42:12;96.18;;;40.35;;
78728;SDS011;68252;44.944;20.218;2024-02-15T06:44:44;93.88;;;39.58;;
78728;SDS011;68252;44.944;20.218;2024-02-15T06:47:10;97.95;;;40.85;;
78728;SDS011;68252;44.944;20.218;2024-02-15T06:49:39;94.72;;;40.10;;
78728;SDS011;68252;44.944;20.218;2024-02-15T06:52:09;93.05;;;40.25;;
78728;SDS011;68252;44.944;20.218;2024-02-15T06:54:37;107.30;;;42.90;;
78728;SDS011;68252;44.944;20.218;2024-02-15T06:57:03;105.03;;;41.95;;
78728;SDS011;68252;44.944;20.218;2024-02-15T06:59:29;102.07;;;42.65;;
78728;SDS011;68252;44.944;20.218;2024-02-15T07:01:57;93.20;;;40.58;;
78728;SDS011;68252;44.944;20.218;2024-02-15T07:04:23;97.55;;;38.67;;
78728;SDS011;68252;44.944;20.218;2024-02-15T07:06:52;95.43;;;40.65;;
78728;SDS011;68252;44.944;20.218;2024-02-15T07:09:22;89.10;;;39.50;;
78728;SDS011;68252;44.944;20.218;2024-02-15T07:11:49;93.78;;;40.22;;
78728;SDS011;68252;44.944;20.218;2024-02-15T07:14:16;96.93;;;39.20;;
78728;SDS011;68252;44.944;20.218;2024-02-15T07:16:48;86.97;;;35.80;;
78728;SDS011;68252;44.944;20.218;2024-02-15T07:19:15;79.90;;;35.92;;
78728;SDS011;68252;44.944;20.218;2024-02-15T07:21:41;78.22;;;34.85;;
78728;SDS011;68252;44.944;20.218;2024-02-15T07:24:07;88.57;;;37.03;;
78728;SDS011;68252;44.944;20.218;2024-02-15T07:26:34;76.90;;;34.00;;
78728;SDS011;68252;44.944;20.218;2024-02-15T07:29:01;80.18;;;36.28;;
78728;SDS011;68252;44.944;20.218;2024-02-15T07:33:56;84.20;;;33.92;;
78728;SDS011;68252;44.944;20.218;2024-02-15T07:36:23;71.65;;;34.40;;
78728;SDS011;68252;44.944;20.218;2024-02-15T07:38:49;89.68;;;36.53;;
78728;SDS011;68252;44.944;20.218;2024-02-15T07:41:20;81.07;;;35.80;;
78728;SDS011;68252;44.944;20.218;2024-02-15T07:43:47;80.28;;;34.70;;
78728;SDS011;68252;44.944;20.218;2024-02-15T07:46:14;75.00;;;35.90;;
78728;SDS011;68252;44.944;20.218;2024-02-15T07:48:41;83.70;;;37.05;;
78728;SDS011;68252;44.944;20.218;2024-02-15T07:51:11;74.43;;;34.47;;
78728;SDS011;68252;44.944;20.218;2024-02-15T07:53:38;78.75;;;37.40;;
78728;SDS011;68252;44.944;20.218;2024-02-15T07:56:05;85.28;;;36.25;;
78728;SDS011;68252;44.944;20.218;2024-02-15T07:58:31;79.45;;;33.40;;
78728;SDS011;68252;44.944;20.218;2024-02-15T08:00:57;76.00;;;33.20;;
78728;SDS011;68252;44.944;20.218;2024-02-15T08:03:24;134.63;;;51.80;;
78728;SDS011;68252;44.944;20.218;2024-02-15T08:05:54;109.03;;;46.67;;
78728;SDS011;68252;44.944;20.218;2024-02-15T08:08:20;111.10;;;49.33;;
78728;SDS011;68252;44.944;20.218;2024-02-15T08:10:46;85.93;;;36.83;;
78728;SDS011;68252;44.944;20.218;2024-02-15T08:13:16;62.33;;;29.77;;
78728;SDS011;68252;44.944;20.218;2024-02-15T08:15:43;55.63;;;28.88;;
78728;SDS011;68252;44.944;20.218;2024-02-15T08:18:11;65.50;;;30.30;;
78728;SDS011;68252;44.944;20.218;2024-02-15T08:20:37;92.80;;;41.88;;
78728;SDS011;68252;44.944;20.218;2024-02-15T08:23:05;78.35;;;34.92;;
78728;SDS011;68252;44.944;20.218;2024-02-15T08:25:31;49.72;;;24.58;;
78728;SDS011;68252;44.944;20.218;2024-02-15T08:27:57;43.95;;;23.20;;
78728;SDS011;68252;44.944;20.218;2024-02-15T08:30:30;49.47;;;24.77;;
78728;SDS011;68252;44.944;20.218;2024-02-15T08:32:56;52.83;;;21.52;;
78728;SDS011;68252;44.944;20.218;2024-02-15T08:35:23;44.58;;;21.35;;
78728;SDS011;68252;44.944;20.218;2024-02-15T08:37:49;43.42;;;21.67;;
78728;SDS011;68252;44.944;20.218;2024-02-15T08:40:17;40.47;;;20.67;;
78728;SDS011;68252;44.944;20.218;2024-02-15T08:42:49;46.33;;;22.17;;
78728;SDS011;68252;44.944;20.218;2024-02-15T08:45:15;48.72;;;23.70;;
78728;SDS011;68252;44.944;20.218;2024-02-15T08:47:42;54.15;;;24.80;;
78728;SDS011;68252;44.944;20.218;2024-02-15T08:50:09;47.22;;;22.23;;
78728;SDS011;68252;44.944;20.218;2024-02-15T08:52:35;50.53;;;22.40;;
78728;SDS011;68252;44.944;20.218;2024-02-15T08:55:07;39.88;;;20.75;;
78728;SDS011;68252;44.944;20.218;2024-02-15T08:57:34;44.10;;;23.80;;
78728;SDS011;68252;44.944;20.218;2024-02-15T09:00:02;46.53;;;20.35;;
78728;SDS011;68252;44.944;20.218;2024-02-15T09:02:38;44.15;;;19.92;;
78728;SDS011;68252;44.944;20.218;2024-02-15T09:05:05;46.10;;;22.88;;
78728;SDS011;68252;44.944;20.218;2024-02-15T09:07:31;46.75;;;23.35;;
78728;SDS011;68252;44.944;20.218;2024-02-15T09:09:58;40.13;;;20.30;;
78728;SDS011;68252;44.944;20.218;2024-02-15T09:12:24;53.58;;;22.83;;
78728;SDS011;68252;44.944;20.218;2024-02-15T09:14:50;47.92;;;22.08;;
78728;SDS011;68252;44.944;20.218;2024-02-15T09:17:16;47.58;;;21.52;;
78728;SDS011;68252;44.944;20.218;2024-02-15T09:19:42;46.25;;;21.45;;
78728;SDS011;68252;44.944;20.218;2024-02-15T09:22:08;41.20;;;19.63;;
78728;SDS011;68252;44.944;20.218;2024-02-15T09:24:34;34.03;;;16.60;;
78728;SDS011;68252;44.944;20.218;2024-02-15T09:27:00;41.35;;;18.05;;
78728;SDS011;68252;44.944;20.218;2024-02-15T09:29:29;35.20;;;17.45;;
78728;SDS011;68252;44.944;20.218;2024-02-15T09:31:57;41.55;;;18.27;;
78728;SDS011;68252;44.944;20.218;2024-02-15T09:34:24;32.30;;;17.70;;
78728;SDS011;68252;44.944;20.218;2024-02-15T09:36:50;52.85;;;19.20;;
78728;SDS011;68252;44.944;20.218;2024-02-15T09:39:17;34.13;;;16.05;;
78728;SDS011;68252;44.944;20.218;2024-02-15T09:41:43;33.97;;;17.30;;
78728;SDS011;68252;44.944;20.218;2024-02-15T09:44:09;38.83;;;17.15;;
78728;SDS011;68252;44.944;20.218;2024-02-15T09:49:04;44.88;;;20.63;;
78728;SDS011;68252;44.944;20.218;2024-02-15T09:51:32;36.53;;;18.73;;
78728;SDS011;68252;44.944;20.218;2024-02-15T09:53:59;39.60;;;19.95;;
78728;SDS011;68252;44.944;20.218;2024-02-15T09:56:26;36.38;;;17.50;;
78728;SDS011;68252;44.944;20.218;2024-02-15T09:58:53;34.10;;;16.48;;
78728;SDS011;68252;44.944;20.218;2024-02-15T10:01:22;37.50;;;17.65;;
78728;SDS011;68252;44.944;20.218;2024-02-15T10:03:49;38.40;;;19.58;;
78728;SDS011;68252;44.944;20.218;2024-02-15T10:06:16;35.17;;;16.48;;
78728;SDS011;68252;44.944;20.218;2024-02-15T10:08:43;41.78;;;18.50;;
78728;SDS011;68252;44.944;20.218;2024-02-15T10:11:09;35.25;;;16.98;;
78728;SDS011;68252;44.944;20.218;2024-02-15T10:13:36;34.50;;;16.38;;
78728;SDS011;68252;44.944;20.218;2024-02-15T10:16:15;32.25;;;16.98;;
78728;SDS011;68252;44.944;20.218;2024-02-15T10:18:41;36.88;;;17.20;;
78728;SDS011;68252;44.944;20.218;2024-02-15T10:21:08;38.05;;;18.23;;
78728;SDS011;68252;44.944;20.218;2024-02-15T10:23:34;42.63;;;18.52;;
78728;SDS011;68252;44.944;20.218;2024-02-15T10:26:00;32.45;;;16.63;;
78728;SDS011;68252;44.944;20.218;2024-02-15T10:28:44;35.65;;;17.40;;
78728;SDS011;68252;44.944;20.218;2024-02-15T10:31:12;40.95;;;17.05;;
78728;SDS011;68252;44.944;20.218;2024-02-15T10:33:38;33.33;;;16.08;;
78728;SDS011;68252;44.944;20.218;2024-02-15T10:36:13;27.95;;;15.27;;
78728;SDS011;68252;44.944;20.218;2024-02-15T10:38:41;31.90;;;16.67;;
78728;SDS011;68252;44.944;20.218;2024-02-15T10:41:07;39.20;;;16.58;;
78728;SDS011;68252;44.944;20.218;2024-02-15T10:43:33;36.97;;;15.98;;
78728;SDS011;68252;44.944;20.218;2024-02-15T10:46:00;28.63;;;14.70;;
78728;SDS011;68252;44.944;20.218;2024-02-15T10:48:26;29.95;;;15.70;;
78728;SDS011;68252;44.944;20.218;2024-02-15T10:50:56;27.80;;;15.25;;
78728;SDS011;68252;44.944;20.218;2024-02-15T10:53:28;29.85;;;14.45;;
78728;SDS011;68252;44.944;20.218;2024-02-15T10:58:34;26.27;;;13.68;;
78728;SDS011;68252;44.944;20.218;2024-02-15T11:01:06;23.05;;;11.85;;
78728;SDS011;68252;44.944;20.218;2024-02-15T11:03:39;25.75;;;12.88;;
78728;SDS011;68252;44.944;20.218;2024-02-15T11:06:06;25.83;;;13.68;;
78728;SDS011;68252;44.944;20.218;2024-02-15T11:08:33;28.75;;;13.15;;
78728;SDS011;68252;44.944;20.218;2024-02-15T11:11:00;24.42;;;12.93;;
78728;SDS011;68252;44.944;20.218;2024-02-15T11:13:29;21.70;;;12.68;;
78728;SDS011;68252;44.944;20.218;2024-02-15T11:15:55;26.35;;;13.15;;
78728;SDS011;68252;44.944;20.218;2024-02-15T11:21:14;26.63;;;12.63;;
78728;SDS011;68252;44.944;20.218;2024-02-15T11:23:41;21.15;;;11.60;;
78728;SDS011;68252;44.944;20.218;2024-02-15T11:26:42;27.17;;;13.77;;
78728;SDS011;68252;44.944;20.218;2024-02-15T11:28:53;21.83;;;11.68;;
78728;SDS011;68252;44.944;20.218;2024-02-15T11:36:50;19.55;;;8.25;;
78728;SDS011;68252;44.944;20.218;2024-02-15T11:45:03;15.52;;;8.05;;
78728;SDS011;68252;44.944;20.218;2024-02-15T11:47:39;18.02;;;7.57;;
78728;SDS011;68252;44.944;20.218;2024-02-15T11:50:08;22.60;;;9.18;;
78728;SDS011;68252;44.944;20.218;2024-02-15T11:52:40;13.75;;;6.15;;
78728;SDS011;68252;44.944;20.218;2024-02-15T11:55:07;15.13;;;8.20;;
78728;SDS011;68252;44.944;20.218;2024-02-15T11:57:38;17.17;;;8.05;;
78728;SDS011;68252;44.944;20.218;2024-02-15T12:00:21;17.02;;;7.47;;
78728;SDS011;68252;44.944;20.218;2024-02-15T12:03:05;18.25;;;7.63;;
78728;SDS011;68252;44.944;20.218;2024-02-15T12:05:50;14.35;;;7.13;;
78728;SDS011;68252;44.944;20.218;2024-02-15T12:08:35;21.63;;;8.00;;
78728;SDS011;68252;44.944;20.218;2024-02-15T12:11:20;15.95;;;6.35;;
78728;SDS011;68252;44.944;20.218;2024-02-15T12:14:04;11.65;;;6.07;;
78728;SDS011;68252;44.944;20.218;2024-02-15T12:17:11;14.77;;;6.18;;
78728;SDS011;68252;44.944;20.218;2024-02-15T12:19:55;19.85;;;7.20;;
78728;SDS011;68252;44.944;20.218;2024-02-15T12:22:28;16.85;;;6.43;;
78728;SDS011;68252;44.944;20.218;2024-02-15T12:24:56;19.63;;;7.80;;
78728;SDS011;68252;44.944;20.218;2024-02-15T12:27:23;14.35;;;6.57;;
78728;SDS011;68252;44.944;20.218;2024-02-15T12:29:55;21.35;;;7.32;;
78728;SDS011;68252;44.944;20.218;2024-02-15T12:32:23;19.60;;;6.32;;
78728;SDS011;68252;44.944;20.218;2024-02-15T12:34:49;14.65;;;6.93;;
78728;SDS011;68252;44.944;20.218;2024-02-15T12:37:25;17.15;;;7.63;;
78728;SDS011;68252;44.944;20.218;2024-02-15T12:39:51;18.48;;;6.97;;
78728;SDS011;68252;44.944;20.218;2024-02-15T12:42:17;17.08;;;6.28;;
78728;SDS011;68252;44.944;20.218;2024-02-15T12:44:45;24.75;;;10.93;;
78728;SDS011;68252;44.944;20.218;2024-02-15T12:47:21;18.05;;;9.93;;
78728;SDS011;68252;44.944;20.218;2024-02-15T12:49:48;19.33;;;7.93;;
78728;SDS011;68252;44.944;20.218;2024-02-15T12:52:36;13.43;;;5.35;;
78728;SDS011;68252;44.944;20.218;2024-02-15T12:55:10;16.58;;;5.93;;
78728;SDS011;68252;44.944;20.218;2024-02-15T12:57:36;13.98;;;6.20;;
78728;SDS011;68252;44.944;20.218;2024-02-15T13:00:05;14.63;;;5.90;;
78728;SDS011;68252;44.944;20.218;2024-02-15T13:02:39;13.25;;;6.18;;
78728;SDS011;68252;44.944;20.218;2024-02-15T13:05:06;10.52;;;5.00;;
78728;SDS011;68252;44.944;20.218;2024-02-15T13:07:36;11.85;;;5.55;;
78728;SDS011;68252;44.944;20.218;2024-02-15T13:10:03;13.27;;;5.75;;
78728;SDS011;68252;44.944;20.218;2024-02-15T13:12:34;14.55;;;6.13;;
78728;SDS011;68252;44.944;20.218;2024-02-15T13:15:03;21.20;;;6.07;;
78728;SDS011;68252;44.944;20.218;2024-02-15T13:17:30;17.20;;;5.90;;
78728;SDS011;68252;44.944;20.218;2024-02-15T13:19:56;9.93;;;5.30;;
78728;SDS011;68252;44.944;20.218;2024-02-15T13:22:29;8.98;;;4.88;;
78728;SDS011;68252;44.944;20.218;2024-02-15T13:24:56;7.78;;;3.88;;
78728;SDS011;68252;44.944;20.218;2024-02-15T13:27:22;9.98;;;5.00;;
78728;SDS011;68252;44.944;20.218;2024-02-15T13:29:49;18.63;;;7.03;;
78728;SDS011;68252;44.944;20.218;2024-02-15T13:32:15;19.55;;;8.30;;
78728;SDS011;68252;44.944;20.218;2024-02-15T13:34:45;34.65;;;16.75;;
78728;SDS011;68252;44.944;20.218;2024-02-15T13:37:12;11.27;;;5.80;;
78728;SDS011;68252;44.944;20.218;2024-02-15T13:39:39;7.75;;;3.97;;
78728;SDS011;68252;44.944;20.218;2024-02-15T13:42:10;22.00;;;5.30;;
78728;SDS011;68252;44.944;20.218;2024-02-15T13:44:36;7.65;;;3.75;;
78728;SDS011;68252;44.944;20.218;2024-02-15T13:47:02;7.53;;;3.60;;
78728;SDS011;68252;44.944;20.218;2024-02-15T13:49:30;12.77;;;5.85;;
78728;SDS011;68252;44.944;20.218;2024-02-15T13:51:57;11.05;;;6.00;;
78728;SDS011;68252;44.944;20.218;2024-02-15T13:54:28;9.80;;;4.97;;
78728;SDS011;68252;44.944;20.218;2024-02-15T13:56:55;10.65;;;4.15;;
78728;SDS011;68252;44.944;20.218;2024-02-15T13:59:21;11.15;;;5.53;;
78728;SDS011;68252;44.944;20.218;2024-02-15T14:01:48;9.98;;;4.78;;
78728;SDS011;68252;44.944;20.218;2024-02-15T14:04:15;11.95;;;5.68;;
78728;SDS011;68252;44.944;20.218;2024-02-15T14:06:43;8.48;;;4.63;;
78728;SDS011;68252;44.944;20.218;2024-02-15T14:09:10;13.02;;;5.50;;
78728;SDS011;68252;44.944;20.218;2024-02-15T14:11:37;9.50;;;4.35;;
78728;SDS011;68252;44.944;20.218;2024-02-15T14:14:03;14.40;;;5.07;;
78728;SDS011;68252;44.944;20.218;2024-02-15T14:16:30;19.30;;;8.32;;
78728;SDS011;68252;44.944;20.218;2024-02-15T14:18:56;45.13;;;20.58;;
78728;SDS011;68252;44.944;20.218;2024-02-15T14:21:22;10.55;;;5.03;;
78728;SDS011;68252;44.944;20.218;2024-02-15T14:23:50;13.70;;;5.18;;
78728;SDS011;68252;44.944;20.218;2024-02-15T14:26:16;11.90;;;5.18;;
78728;SDS011;68252;44.944;20.218;2024-02-15T14:28:43;10.32;;;4.93;;
78728;SDS011;68252;44.944;20.218;2024-02-15T14:31:12;12.38;;;4.50;;
78728;SDS011;68252;44.944;20.218;2024-02-15T14:34:02;16.40;;;4.68;;
78728;SDS011;68252;44.944;20.218;2024-02-15T14:36:28;15.55;;;4.47;;
78728;SDS011;68252;44.944;20.218;2024-02-15T14:38:54;14.63;;;4.57;;
78728;SDS011;68252;44.944;20.218;2024-02-15T14:41:21;8.90;;;4.57;;